sensor_id;sensor_type;location;lat;lon;timestamp;P1;durP1;ratioP1;P2;durP2;ratioP2
76121;SDS011;70471;53.200;6.080;2023-08-01T00:03:03;0.80;;;0.52;;
76121;SDS011;70471;53.200;6.080;2023-08-01T00:07:54;1.27;;;0.70;;
76121;SDS011;70471;53.200;6.080;2023-08-01T00:12:46;2.00;;;0.52;;
76121;SDS011;70471;53.200;6.080;2023-08-01T00:17:37;1.05;;;0.50;;
76121;SDS011;70471;53.200;6.080;2023-08-01T00:22:30;0.90;;;0.60;;
76121;SDS011;70471;53.200;6.080;2023-08-01T00:27:22;2.45;;;0.70;;
76121;SDS011;70471;53.200;6.080;2023-08-01T00:32:14;1.00;;;0.80;;
76121;SDS011;70471;53.200;6.080;2023-08-01T00:37:05;2.13;;;0.75;;
76121;SDS011;70471;53.200;6.080;2023-08-01T00:41:58;1.38;;;0.70;;
76121;SDS011;70471;53.200;6.080;2023-08-01T00:46:50;1.45;;;0.85;;
76121;SDS011;70471;53.200;6.080;2023-08-01T00:51:41;1.95;;;0.75;;
76121;SDS011;70471;53.200;6.080;2023-08-01T00:56:33;1.50;;;0.55;;
76121;SDS011;70471;53.200;6.080;2023-08-01T01:01:26;2.03;;;0.70;;
76121;SDS011;70471;53.200;6.080;2023-08-01T01:06:19;1.65;;;0.70;;
76121;SDS011;70471;53.200;6.080;2023-08-01T01:11:14;1.73;;;0.50;;
76121;SDS011;70471;53.200;6.080;2023-08-01T01:16:05;1.40;;;0.60;;
76121;SDS011;70471;53.200;6.080;2023-08-01T01:20:58;0.77;;;0.40;;
76121;SDS011;70471;53.200;6.080;2023-08-01T01:25:50;1.30;;;0.60;;
76121;SDS011;70471;53.200;6.080;2023-08-01T01:30:42;1.73;;;0.70;;
76121;SDS011;70471;53.200;6.080;2023-08-01T01:35:34;1.08;;;0.60;;
76121;SDS011;70471;53.200;6.080;2023-08-01T01:40:27;0.95;;;0.55;;
76121;SDS011;70471;53.200;6.080;2023-08-01T01:45:19;1.25;;;0.70;;
76121;SDS011;70471;53.200;6.080;2023-08-01T01:50:10;0.75;;;0.40;;
76121;SDS011;70471;53.200;6.080;2023-08-01T01:55:02;1.13;;;0.70;;
76121;SDS011;70471;53.200;6.080;2023-08-01T01:59:55;1.15;;;0.90;;
76121;SDS011;70471;53.200;6.080;2023-08-01T02:04:48;1.38;;;0.70;;
76121;SDS011;70471;53.200;6.080;2023-08-01T02:09:41;1.60;;;0.50;;
76121;SDS011;70471;53.200;6.080;2023-08-01T02:14:32;2.28;;;0.50;;
76121;SDS011;70471;53.200;6.080;2023-08-01T02:19:25;1.23;;;0.70;;
76121;SDS011;70471;53.200;6.080;2023-08-01T02:24:16;0.55;;;0.45;;
76121;SDS011;70471;53.200;6.080;2023-08-01T02:29:08;0.30;;;0.30;;
76121;SDS011;70471;53.200;6.080;2023-08-01T02:33:59;1.63;;;0.55;;
76121;SDS011;70471;53.200;6.080;2023-08-01T02:38:52;1.00;;;0.65;;
76121;SDS011;70471;53.200;6.080;2023-08-01T02:43:44;1.65;;;0.73;;
76121;SDS011;70471;53.200;6.080;2023-08-01T02:48:35;1.25;;;0.50;;
76121;SDS011;70471;53.200;6.080;2023-08-01T02:53:27;1.23;;;0.47;;
76121;SDS011;70471;53.200;6.080;2023-08-01T02:58:20;1.95;;;0.77;;
76121;SDS011;70471;53.200;6.080;2023-08-01T03:03:11;1.23;;;0.65;;
76121;SDS011;70471;53.200;6.080;2023-08-01T03:08:03;1.52;;;0.70;;
76121;SDS011;70471;53.200;6.080;2023-08-01T03:12:54;0.80;;;0.50;;
76121;SDS011;70471;53.200;6.080;2023-08-01T03:17:47;0.93;;;0.43;;
76121;SDS011;70471;53.200;6.080;2023-08-01T03:22:39;1.27;;;0.47;;
76121;SDS011;70471;53.200;6.080;2023-08-01T03:27:31;0.82;;;0.60;;
76121;SDS011;70471;53.200;6.080;2023-08-01T03:32:23;1.65;;;0.80;;
76121;SDS011;70471;53.200;6.080;2023-08-01T03:37:16;1.75;;;0.50;;
76121;SDS011;70471;53.200;6.080;2023-08-01T03:42:08;1.45;;;0.60;;
76121;SDS011;70471;53.200;6.080;2023-08-01T03:46:59;1.30;;;0.50;;
76121;SDS011;70471;53.200;6.080;2023-08-01T03:51:51;1.42;;;0.60;;
76121;SDS011;70471;53.200;6.080;2023-08-01T03:56:44;1.30;;;0.70;;
76121;SDS011;70471;53.200;6.080;2023-08-01T04:01:36;1.13;;;0.30;;
76121;SDS011;70471;53.200;6.080;2023-08-01T04:06:27;0.95;;;0.60;;
76121;SDS011;70471;53.200;6.080;2023-08-01T04:11:19;1.35;;;0.52;;
76121;SDS011;70471;53.200;6.080;2023-08-01T04:16:12;0.93;;;0.40;;
76121;SDS011;70471;53.200;6.080;2023-08-01T04:21:03;0.80;;;0.60;;
76121;SDS011;70471;53.200;6.080;2023-08-01T04:25:54;0.70;;;0.50;;
76121;SDS011;70471;53.200;6.080;2023-08-01T04:30:48;1.45;;;0.47;;
76121;SDS011;70471;53.200;6.080;2023-08-01T04:35:41;1.20;;;0.60;;
76121;SDS011;70471;53.200;6.080;2023-08-01T04:40:33;1.40;;;0.20;;
76121;SDS011;70471;53.200;6.080;2023-08-01T04:45:24;0.63;;;0.40;;
76121;SDS011;70471;53.200;6.080;2023-08-01T04:50:16;0.60;;;0.45;;
76121;SDS011;70471;53.200;6.080;2023-08-01T04:55:08;0.85;;;0.43;;
76121;SDS011;70471;53.200;6.080;2023-08-01T05:00:00;1.27;;;0.40;;
76121;SDS011;70471;53.200;6.080;2023-08-01T05:04:51;0.50;;;0.20;;
76121;SDS011;70471;53.200;6.080;2023-08-01T05:09:43;1.00;;;0.40;;
76121;SDS011;70471;53.200;6.080;2023-08-01T05:14:36;0.50;;;0.35;;
76121;SDS011;70471;53.200;6.080;2023-08-01T05:19:27;0.85;;;0.30;;
76121;SDS011;70471;53.200;6.080;2023-08-01T05:24:19;1.65;;;0.50;;
76121;SDS011;70471;53.200;6.080;2023-08-01T05:29:10;0.40;;;0.30;;
76121;SDS011;70471;53.200;6.080;2023-08-01T05:34:03;0.90;;;0.40;;
76121;SDS011;70471;53.200;6.080;2023-08-01T05:38:54;1.00;;;0.32;;
76121;SDS011;70471;53.200;6.080;2023-08-01T05:43:46;0.50;;;0.30;;
76121;SDS011;70471;53.200;6.080;2023-08-01T05:48:38;0.80;;;0.45;;
76121;SDS011;70471;53.200;6.080;2023-08-01T05:53:31;1.27;;;0.35;;
76121;SDS011;70471;53.200;6.080;2023-08-01T05:58:22;0.55;;;0.32;;
76121;SDS011;70471;53.200;6.080;2023-08-01T06:03:14;0.85;;;0.40;;
76121;SDS011;70471;53.200;6.080;2023-08-01T06:08:06;0.70;;;0.30;;
76121;SDS011;70471;53.200;6.080;2023-08-01T06:12:59;1.88;;;0.35;;
76121;SDS011;70471;53.200;6.080;2023-08-01T06:17:51;0.70;;;0.30;;
76121;SDS011;70471;53.200;6.080;2023-08-01T06:22:42;0.47;;;0.20;;
76121;SDS011;70471;53.200;6.080;2023-08-01T06:27:34;0.30;;;0.20;;
76121;SDS011;70471;53.200;6.080;2023-08-01T06:32:27;0.60;;;0.30;;
76121;SDS011;70471;53.200;6.080;2023-08-01T06:37:18;0.57;;;0.20;;
76121;SDS011;70471;53.200;6.080;2023-08-01T06:42:10;0.50;;;0.20;;
76121;SDS011;70471;53.200;6.080;2023-08-01T06:47:01;1.73;;;0.25;;
76121;SDS011;70471;53.200;6.080;2023-08-01T06:51:54;1.25;;;0.35;;
76121;SDS011;70471;53.200;6.080;2023-08-01T06:56:46;1.15;;;0.30;;
76121;SDS011;70471;53.200;6.080;2023-08-01T07:01:38;0.43;;;0.43;;
76121;SDS011;70471;53.200;6.080;2023-08-01T07:06:30;0.80;;;0.30;;
76121;SDS011;70471;53.200;6.080;2023-08-01T07:11:23;0.38;;;0.38;;
76121;SDS011;70471;53.200;6.080;2023-08-01T07:16:14;0.68;;;0.20;;
76121;SDS011;70471;53.200;6.080;2023-08-01T07:21:06;1.38;;;0.50;;
76121;SDS011;70471;53.200;6.080;2023-08-01T07:25:57;0.90;;;0.20;;
76121;SDS011;70471;53.200;6.080;2023-08-01T07:30:57;1.25;;;0.30;;
76121;SDS011;70471;53.200;6.080;2023-08-01T07:35:49;0.95;;;0.30;;
76121;SDS011;70471;53.200;6.080;2023-08-01T07:45:32;2.20;;;0.73;;
76121;SDS011;70471;53.200;6.080;2023-08-01T07:50:26;2.17;;;0.35;;
76121;SDS011;70471;53.200;6.080;2023-08-01T07:55:18;1.23;;;0.30;;
76121;SDS011;70471;53.200;6.080;2023-08-01T08:00:11;1.85;;;0.28;;
76121;SDS011;70471;53.200;6.080;2023-08-01T08:05:03;0.50;;;0.13;;
76121;SDS011;70471;53.200;6.080;2023-08-01T08:09:56;0.15;;;0.10;;
76121;SDS011;70471;53.200;6.080;2023-08-01T08:14:47;0.75;;;0.30;;
76121;SDS011;70471;53.200;6.080;2023-08-01T08:19:39;0.82;;;0.30;;
76121;SDS011;70471;53.200;6.080;2023-08-01T08:24:31;0.82;;;0.20;;
76121;SDS011;70471;53.200;6.080;2023-08-01T08:29:23;0.20;;;0.10;;
76121;SDS011;70471;53.200;6.080;2023-08-01T08:34:15;0.50;;;0.10;;
76121;SDS011;70471;53.200;6.080;2023-08-01T08:39:06;2.30;;;0.30;;
76121;SDS011;70471;53.200;6.080;2023-08-01T08:43:58;1.30;;;0.28;;
76121;SDS011;70471;53.200;6.080;2023-08-01T08:48:53;1.30;;;0.17;;
76121;SDS011;70471;53.200;6.080;2023-08-01T08:53:45;0.65;;;0.20;;
76121;SDS011;70471;53.200;6.080;2023-08-01T08:58:38;1.02;;;0.20;;
76121;SDS011;70471;53.200;6.080;2023-08-01T09:03:30;1.35;;;0.20;;
76121;SDS011;70471;53.200;6.080;2023-08-01T09:08:25;1.10;;;0.15;;
76121;SDS011;70471;53.200;6.080;2023-08-01T09:13:20;3.33;;;1.38;;
76121;SDS011;70471;53.200;6.080;2023-08-01T09:18:12;0.30;;;0.20;;
76121;SDS011;70471;53.200;6.080;2023-08-01T09:23:08;0.30;;;0.10;;
76121;SDS011;70471;53.200;6.080;2023-08-01T09:28:01;0.73;;;0.20;;
76121;SDS011;70471;53.200;6.080;2023-08-01T09:32:52;0.70;;;0.40;;
76121;SDS011;70471;53.200;6.080;2023-08-01T09:37:44;0.40;;;0.20;;
76121;SDS011;70471;53.200;6.080;2023-08-01T09:42:39;0.50;;;0.20;;
76121;SDS011;70471;53.200;6.080;2023-08-01T09:47:36;0.15;;;0.10;;
76121;SDS011;70471;53.200;6.080;2023-08-01T09:52:28;0.20;;;0.10;;
76121;SDS011;70471;53.200;6.080;2023-08-01T09:57:20;0.28;;;0.03;;
76121;SDS011;70471;53.200;6.080;2023-08-01T10:02:15;1.40;;;0.20;;
76121;SDS011;70471;53.200;6.080;2023-08-01T10:07:12;0.63;;;0.30;;
76121;SDS011;70471;53.200;6.080;2023-08-01T10:12:08;1.23;;;0.30;;
76121;SDS011;70471;53.200;6.080;2023-08-01T10:17:04;2.47;;;0.50;;
76121;SDS011;70471;53.200;6.080;2023-08-01T10:21:56;0.93;;;0.43;;
76121;SDS011;70471;53.200;6.080;2023-08-01T10:26:50;0.22;;;0.10;;
76121;SDS011;70471;53.200;6.080;2023-08-01T10:31:50;2.15;;;0.40;;
76121;SDS011;70471;53.200;6.080;2023-08-01T10:36:52;2.20;;;0.88;;
76121;SDS011;70471;53.200;6.080;2023-08-01T10:41:44;1.73;;;0.30;;
76121;SDS011;70471;53.200;6.080;2023-08-01T10:46:47;1.52;;;0.30;;
76121;SDS011;70471;53.200;6.080;2023-08-01T10:51:39;1.10;;;0.77;;
76121;SDS011;70471;53.200;6.080;2023-08-01T10:56:31;1.08;;;0.40;;
76121;SDS011;70471;53.200;6.080;2023-08-01T11:01:22;1.02;;;0.32;;
76121;SDS011;70471;53.200;6.080;2023-08-01T11:06:17;0.82;;;0.25;;
76121;SDS011;70471;53.200;6.080;2023-08-01T11:11:10;2.10;;;0.50;;
76121;SDS011;70471;53.200;6.080;2023-08-01T11:16:05;1.63;;;0.47;;
76121;SDS011;70471;53.200;6.080;2023-08-01T11:20:57;1.00;;;0.75;;
76121;SDS011;70471;53.200;6.080;2023-08-01T11:25:50;1.40;;;0.88;;
76121;SDS011;70471;53.200;6.080;2023-08-01T11:30:41;2.05;;;0.82;;
76121;SDS011;70471;53.200;6.080;2023-08-01T11:35:34;1.92;;;0.98;;
76121;SDS011;70471;53.200;6.080;2023-08-01T11:40:25;2.05;;;0.98;;
76121;SDS011;70471;53.200;6.080;2023-08-01T11:45:19;0.88;;;0.80;;
76121;SDS011;70471;53.200;6.080;2023-08-01T11:50:11;1.67;;;1.02;;
76121;SDS011;70471;53.200;6.080;2023-08-01T11:55:03;1.98;;;1.00;;
76121;SDS011;70471;53.200;6.080;2023-08-01T11:59:56;0.88;;;0.75;;
76121;SDS011;70471;53.200;6.080;2023-08-01T12:04:49;2.88;;;1.00;;
76121;SDS011;70471;53.200;6.080;2023-08-01T12:09:40;1.48;;;0.90;;
76121;SDS011;70471;53.200;6.080;2023-08-01T12:14:32;1.45;;;0.80;;
76121;SDS011;70471;53.200;6.080;2023-08-01T12:19:23;2.75;;;1.00;;
76121;SDS011;70471;53.200;6.080;2023-08-01T12:24:16;2.03;;;0.77;;
76121;SDS011;70471;53.200;6.080;2023-08-01T12:29:08;3.33;;;0.98;;
76121;SDS011;70471;53.200;6.080;2023-08-01T12:34:00;1.65;;;0.90;;
76121;SDS011;70471;53.200;6.080;2023-08-01T12:38:51;2.28;;;0.77;;
76121;SDS011;70471;53.200;6.080;2023-08-01T12:43:44;2.15;;;1.02;;
76121;SDS011;70471;53.200;6.080;2023-08-01T12:48:36;1.73;;;0.70;;
76121;SDS011;70471;53.200;6.080;2023-08-01T12:53:27;1.52;;;0.85;;
76121;SDS011;70471;53.200;6.080;2023-08-01T12:58:19;2.45;;;0.73;;
76121;SDS011;70471;53.200;6.080;2023-08-01T13:03:12;1.00;;;0.60;;
76121;SDS011;70471;53.200;6.080;2023-08-01T13:08:04;1.45;;;0.68;;
76121;SDS011;70471;53.200;6.080;2023-08-01T13:12:56;2.20;;;0.52;;
76121;SDS011;70471;53.200;6.080;2023-08-01T13:17:47;2.10;;;0.50;;
76121;SDS011;70471;53.200;6.080;2023-08-01T13:22:40;2.42;;;0.60;;
76121;SDS011;70471;53.200;6.080;2023-08-01T13:27:33;3.08;;;0.82;;
76121;SDS011;70471;53.200;6.080;2023-08-01T13:32:25;2.67;;;0.85;;
76121;SDS011;70471;53.200;6.080;2023-08-01T13:37:17;1.85;;;0.68;;
76121;SDS011;70471;53.200;6.080;2023-08-01T13:42:10;2.67;;;0.70;;
76121;SDS011;70471;53.200;6.080;2023-08-01T13:47:01;7.85;;;0.82;;
76121;SDS011;70471;53.200;6.080;2023-08-01T13:51:53;0.73;;;0.40;;
76121;SDS011;70471;53.200;6.080;2023-08-01T13:56:45;1.80;;;0.90;;
76121;SDS011;70471;53.200;6.080;2023-08-01T14:01:38;0.75;;;0.40;;
76121;SDS011;70471;53.200;6.080;2023-08-01T14:06:29;0.63;;;0.30;;
76121;SDS011;70471;53.200;6.080;2023-08-01T14:11:21;0.73;;;0.50;;
76121;SDS011;70471;53.200;6.080;2023-08-01T14:16:13;0.82;;;0.28;;
76121;SDS011;70471;53.200;6.080;2023-08-01T14:21:07;0.45;;;0.40;;
76121;SDS011;70471;53.200;6.080;2023-08-01T14:25:59;2.17;;;0.40;;
76121;SDS011;70471;53.200;6.080;2023-08-01T14:30:50;2.08;;;0.30;;
76121;SDS011;70471;53.200;6.080;2023-08-01T14:35:42;1.55;;;0.57;;
76121;SDS011;70471;53.200;6.080;2023-08-01T14:40:35;0.98;;;0.50;;
76121;SDS011;70471;53.200;6.080;2023-08-01T14:45:26;0.90;;;0.47;;
76121;SDS011;70471;53.200;6.080;2023-08-01T14:50:18;0.35;;;0.35;;
76121;SDS011;70471;53.200;6.080;2023-08-01T14:55:10;0.82;;;0.32;;
76121;SDS011;70471;53.200;6.080;2023-08-01T15:00:03;0.82;;;0.30;;
76121;SDS011;70471;53.200;6.080;2023-08-01T15:04:55;0.20;;;0.20;;
76121;SDS011;70471;53.200;6.080;2023-08-01T15:09:48;0.40;;;0.28;;
76121;SDS011;70471;53.200;6.080;2023-08-01T15:14:40;0.40;;;0.30;;
76121;SDS011;70471;53.200;6.080;2023-08-01T15:19:33;0.98;;;0.50;;
76121;SDS011;70471;53.200;6.080;2023-08-01T15:24:24;0.55;;;0.20;;
76121;SDS011;70471;53.200;6.080;2023-08-01T15:29:16;0.45;;;0.30;;
76121;SDS011;70471;53.200;6.080;2023-08-01T15:34:07;1.20;;;0.52;;
76121;SDS011;70471;53.200;6.080;2023-08-01T15:39:00;0.30;;;0.30;;
76121;SDS011;70471;53.200;6.080;2023-08-01T15:43:52;0.68;;;0.40;;
76121;SDS011;70471;53.200;6.080;2023-08-01T15:48:44;1.13;;;0.43;;
76121;SDS011;70471;53.200;6.080;2023-08-01T15:53:36;1.45;;;0.30;;
76121;SDS011;70471;53.200;6.080;2023-08-01T15:58:29;1.23;;;0.85;;
76121;SDS011;70471;53.200;6.080;2023-08-01T16:03:21;1.70;;;0.40;;
76121;SDS011;70471;53.200;6.080;2023-08-01T16:08:12;1.35;;;0.40;;
76121;SDS011;70471;53.200;6.080;2023-08-01T16:13:04;1.13;;;0.55;;
76121;SDS011;70471;53.200;6.080;2023-08-01T16:17:57;1.60;;;0.35;;
76121;SDS011;70471;53.200;6.080;2023-08-01T16:22:48;1.58;;;0.50;;
76121;SDS011;70471;53.200;6.080;2023-08-01T16:27:39;1.05;;;0.20;;
76121;SDS011;70471;53.200;6.080;2023-08-01T16:32:31;0.80;;;0.40;;
76121;SDS011;70471;53.200;6.080;2023-08-01T16:37:24;1.23;;;0.40;;
76121;SDS011;70471;53.200;6.080;2023-08-01T16:42:15;1.20;;;0.30;;
76121;SDS011;70471;53.200;6.080;2023-08-01T16:47:06;0.50;;;0.30;;
76121;SDS011;70471;53.200;6.080;2023-08-01T16:51:58;0.75;;;0.20;;
76121;SDS011;70471;53.200;6.080;2023-08-01T16:56:51;0.80;;;0.28;;
76121;SDS011;70471;53.200;6.080;2023-08-01T17:01:42;0.77;;;0.30;;
76121;SDS011;70471;53.200;6.080;2023-08-01T17:06:34;0.30;;;0.30;;
76121;SDS011;70471;53.200;6.080;2023-08-01T17:11:25;0.65;;;0.30;;
76121;SDS011;70471;53.200;6.080;2023-08-01T17:16:18;0.40;;;0.30;;
76121;SDS011;70471;53.200;6.080;2023-08-01T17:21:09;1.33;;;0.52;;
76121;SDS011;70471;53.200;6.080;2023-08-01T17:26:01;2.45;;;0.40;;
76121;SDS011;70471;53.200;6.080;2023-08-01T17:30:53;0.80;;;0.40;;
76121;SDS011;70471;53.200;6.080;2023-08-01T17:35:45;2.40;;;0.57;;
76121;SDS011;70471;53.200;6.080;2023-08-01T17:40:39;0.82;;;0.30;;
76121;SDS011;70471;53.200;6.080;2023-08-01T17:45:34;1.15;;;0.20;;
76121;SDS011;70471;53.200;6.080;2023-08-01T17:50:25;0.73;;;0.30;;
76121;SDS011;70471;53.200;6.080;2023-08-01T17:55:18;0.32;;;0.20;;
76121;SDS011;70471;53.200;6.080;2023-08-01T18:00:10;1.23;;;0.43;;
76121;SDS011;70471;53.200;6.080;2023-08-01T18:05:03;2.95;;;0.30;;
76121;SDS011;70471;53.200;6.080;2023-08-01T18:09:56;3.10;;;0.32;;
76121;SDS011;70471;53.200;6.080;2023-08-01T18:14:49;0.82;;;0.30;;
76121;SDS011;70471;53.200;6.080;2023-08-01T18:19:40;1.27;;;0.28;;
76121;SDS011;70471;53.200;6.080;2023-08-01T18:24:32;1.20;;;0.35;;
76121;SDS011;70471;53.200;6.080;2023-08-01T18:29:23;0.90;;;0.38;;
76121;SDS011;70471;53.200;6.080;2023-08-01T18:34:16;1.30;;;0.60;;
76121;SDS011;70471;53.200;6.080;2023-08-01T18:39:08;1.40;;;0.30;;
76121;SDS011;70471;53.200;6.080;2023-08-01T18:43:59;0.95;;;0.30;;
76121;SDS011;70471;53.200;6.080;2023-08-01T18:48:51;1.45;;;0.40;;
76121;SDS011;70471;53.200;6.080;2023-08-01T18:53:44;0.50;;;0.50;;
76121;SDS011;70471;53.200;6.080;2023-08-01T18:58:36;1.35;;;0.52;;
76121;SDS011;70471;53.200;6.080;2023-08-01T19:03:28;1.20;;;0.40;;
76121;SDS011;70471;53.200;6.080;2023-08-01T19:08:20;0.95;;;0.20;;
76121;SDS011;70471;53.200;6.080;2023-08-01T19:13:12;0.85;;;0.35;;
76121;SDS011;70471;53.200;6.080;2023-08-01T19:18:04;3.05;;;0.77;;
76121;SDS011;70471;53.200;6.080;2023-08-01T19:22:55;0.68;;;0.43;;
76121;SDS011;70471;53.200;6.080;2023-08-01T19:27:47;0.77;;;0.35;;
76121;SDS011;70471;53.200;6.080;2023-08-01T19:32:40;0.95;;;0.20;;
76121;SDS011;70471;53.200;6.080;2023-08-01T19:37:32;0.50;;;0.30;;
76121;SDS011;70471;53.200;6.080;2023-08-01T19:42:24;0.50;;;0.30;;
76121;SDS011;70471;53.200;6.080;2023-08-01T19:47:15;1.27;;;0.38;;
76121;SDS011;70471;53.200;6.080;2023-08-01T19:52:08;0.88;;;0.30;;
76121;SDS011;70471;53.200;6.080;2023-08-01T19:57:00;0.98;;;0.45;;
76121;SDS011;70471;53.200;6.080;2023-08-01T20:01:51;1.95;;;0.20;;
76121;SDS011;70471;53.200;6.080;2023-08-01T20:06:43;0.57;;;0.40;;
76121;SDS011;70471;53.200;6.080;2023-08-01T20:11:36;0.90;;;0.20;;
76121;SDS011;70471;53.200;6.080;2023-08-01T20:16:28;0.73;;;0.20;;
76121;SDS011;70471;53.200;6.080;2023-08-01T20:21:19;1.27;;;0.30;;
76121;SDS011;70471;53.200;6.080;2023-08-01T20:26:11;1.40;;;0.20;;
76121;SDS011;70471;53.200;6.080;2023-08-01T20:31:04;1.70;;;0.30;;
76121;SDS011;70471;53.200;6.080;2023-08-01T20:35:55;0.40;;;0.20;;
76121;SDS011;70471;53.200;6.080;2023-08-01T20:40:47;0.57;;;0.20;;
76121;SDS011;70471;53.200;6.080;2023-08-01T20:45:39;0.32;;;0.20;;
76121;SDS011;70471;53.200;6.080;2023-08-01T20:50:32;0.38;;;0.28;;
76121;SDS011;70471;53.200;6.080;2023-08-01T20:55:23;0.65;;;0.30;;
76121;SDS011;70471;53.200;6.080;2023-08-01T21:00:15;0.50;;;0.13;;
76121;SDS011;70471;53.200;6.080;2023-08-01T21:05:07;0.88;;;0.22;;
76121;SDS011;70471;53.200;6.080;2023-08-01T21:10:00;0.20;;;0.10;;
76121;SDS011;70471;53.200;6.080;2023-08-01T21:14:51;0.80;;;0.28;;
76121;SDS011;70471;53.200;6.080;2023-08-01T21:19:43;0.68;;;0.20;;
76121;SDS011;70471;53.200;6.080;2023-08-01T21:24:35;1.55;;;0.30;;
76121;SDS011;70471;53.200;6.080;2023-08-01T21:29:27;1.17;;;0.22;;
76121;SDS011;70471;53.200;6.080;2023-08-01T21:34:19;1.00;;;0.10;;
76121;SDS011;70471;53.200;6.080;2023-08-01T21:39:10;0.98;;;0.40;;
76121;SDS011;70471;53.200;6.080;2023-08-01T21:44:02;0.95;;;0.38;;
76121;SDS011;70471;53.200;6.080;2023-08-01T21:48:55;1.23;;;0.13;;
76121;SDS011;70471;53.200;6.080;2023-08-01T21:53:46;0.60;;;0.20;;
76121;SDS011;70471;53.200;6.080;2023-08-01T21:58:38;1.17;;;0.15;;
76121;SDS011;70471;53.200;6.080;2023-08-01T22:03:29;0.22;;;0.20;;
76121;SDS011;70471;53.200;6.080;2023-08-01T22:08:22;0.15;;;0.10;;
76121;SDS011;70471;53.200;6.080;2023-08-01T22:13:13;0.50;;;0.10;;
76121;SDS011;70471;53.200;6.080;2023-08-01T22:18:05;0.20;;;0.20;;
76121;SDS011;70471;53.200;6.080;2023-08-01T22:22:56;0.10;;;0.10;;
76121;SDS011;70471;53.200;6.080;2023-08-01T22:27:49;0.52;;;0.10;;
76121;SDS011;70471;53.200;6.080;2023-08-01T22:32:42;0.47;;;0.20;;
76121;SDS011;70471;53.200;6.080;2023-08-01T22:37:34;0.57;;;0.20;;
76121;SDS011;70471;53.200;6.080;2023-08-01T22:42:25;0.65;;;0.22;;
76121;SDS011;70471;53.200;6.080;2023-08-01T22:47:18;0.32;;;0.10;;
76121;SDS011;70471;53.200;6.080;2023-08-01T22:52:09;0.88;;;0.10;;
76121;SDS011;70471;53.200;6.080;2023-08-01T22:57:01;0.40;;;0.10;;
76121;SDS011;70471;53.200;6.080;2023-08-01T23:01:52;0.20;;;0.20;;
76121;SDS011;70471;53.200;6.080;2023-08-01T23:06:46;0.30;;;0.10;;
76121;SDS011;70471;53.200;6.080;2023-08-01T23:11:38;1.55;;;0.30;;
76121;SDS011;70471;53.200;6.080;2023-08-01T23:16:29;0.13;;;0.10;;
76121;SDS011;70471;53.200;6.080;2023-08-01T23:21:21;0.75;;;0.20;;
76121;SDS011;70471;53.200;6.080;2023-08-01T23:26:13;0.35;;;0.10;;
76121;SDS011;70471;53.200;6.080;2023-08-01T23:31:05;0.77;;;0.20;;
76121;SDS011;70471;53.200;6.080;2023-08-01T23:35:56;0.45;;;0.10;;
76121;SDS011;70471;53.200;6.080;2023-08-01T23:40:48;0.10;;;0.10;;
76121;SDS011;70471;53.200;6.080;2023-08-01T23:45:48;0.30;;;0.10;;
76121;SDS011;70471;53.200;6.080;2023-08-01T23:50:40;0.40;;;0.10;;
76121;SDS011;70471;53.200;6.080;2023-08-01T23:55:34;1.55;;;0.25;;
